Alovera, Spain
Current Conditions -  °F | °C
As of 8:00 AM on Sunday 21 Dec 2014 (Local Time) from LETO Reporting Station
Clear Clear  
Wind Chill: 32°   Ceiling: Unl
Heat Index: 32°   Visibility: 6mi
Dew Point: 32°   Wind: 3mph
Humidity: 100%   Direction: 40°NE
Pressure: 30.5"   Gusts: NA
Location:  40.59°N, 3.25°W
Report Text: LETO 210700Z 04003KT CAVOK 00/M00 Q1033 NOSIG
Loading
Personal Weather Stations






























Interactive Weather Map New forecast layout! Learn more

10-Day Weather Forecast

Advertisements
Track Severe Weather on mobile